LIMW METAR and TAF | Updated Today

LIMW METAR

Aosta Airport

Observation time: 28 min. ago

LIMW 010850Z AUTO 00000KT 9999 FEW099/// 12/06 Q1018

Need help? Read our tutorial on how to read METARs or read the parsed version below.

Aosta Airport (LIMW) METAR

  • Weather conditions on Sat, 01 Oct 2022 08:50:00 +0000 (28 min. ago):
  • Present conditions: Dry
  • Clouds: A few at 3018 meters
  • Visibility: Greater than 10 km
  • Wind: Calm
  • Temperature: 12 celsius
  • Dew point: 6 celsius
  • Pressure: 1018 millibars
  • Remarks: None


Useful to know...

LIMW TAF

Aosta Airport

TAF LIMW 010800Z 0109/0118 27012KT 9999 SCT070 TEMPO 0109/0115 4000 RA
Observation time: 78 min. ago
Need help? Read our tutorial on how to read TAFs or read the parsed version below.

Parsed version of TAF for Aosta Airport (LIMW)

  • From 01 October at 09:00 UTC, to day 01 of the month at 18:00 UTC
  • Clouds: Scattered at 2134 meters
  • Visibility: Greater than 10 km
  • Wind: 270 degrees at 12
  • Expected to arise temporarily, from 01 October at 09:00 UTC, to day 01 of the month at 15:00 UTC
  • Visibility: 4000 meters
  • Other: Rain